sensor_id;sensor_type;location;lat;lon;timestamp;pressure;altitude;pressure_sealevel;temperature;humidity
68656;BME280;55638;51.122;13.606;2022-12-24T00:01:25;98882.63;;;7.83;71.51
68656;BME280;55638;51.122;13.606;2022-12-24T00:02:57;98890.53;;;7.85;71.44
68656;BME280;55638;51.122;13.606;2022-12-24T00:04:29;98882.19;;;7.88;71.51
68656;BME280;55638;51.122;13.606;2022-12-24T00:06:08;98900.69;;;7.91;71.35
68656;BME280;55638;51.122;13.606;2022-12-24T00:07:40;98893.59;;;7.90;71.61
68656;BME280;55638;51.122;13.606;2022-12-24T00:09:11;98900.41;;;7.94;71.35
68656;BME280;55638;51.122;13.606;2022-12-24T00:10:43;98918.88;;;7.97;71.36
68656;BME280;55638;51.122;13.606;2022-12-24T00:12:19;98914.50;;;7.96;71.38
68656;BME280;55638;51.122;13.606;2022-12-24T00:13:50;98901.47;;;8.01;71.19
68656;BME280;55638;51.122;13.606;2022-12-24T00:15:22;98923.84;;;8.01;70.95
68656;BME280;55638;51.122;13.606;2022-12-24T00:16:54;98921.84;;;8.03;70.94
68656;BME280;55638;51.122;13.606;2022-12-24T00:18:26;98917.63;;;8.01;70.92
68656;BME280;55638;51.122;13.606;2022-12-24T00:19:58;98913.06;;;8.01;70.90
68656;BME280;55638;51.122;13.606;2022-12-24T00:21:30;98914.91;;;8.01;70.73
68656;BME280;55638;51.122;13.606;2022-12-24T00:23:01;98914.75;;;8.02;70.70
68656;BME280;55638;51.122;13.606;2022-12-24T00:24:33;98926.34;;;8.03;70.65
68656;BME280;55638;51.122;13.606;2022-12-24T00:26:05;98924.66;;;8.02;70.50
68656;BME280;55638;51.122;13.606;2022-12-24T00:27:37;98926.50;;;8.01;70.47
68656;BME280;55638;51.122;13.606;2022-12-24T00:29:10;98916.59;;;8.02;70.30
68656;BME280;55638;51.122;13.606;2022-12-24T00:30:42;98917.63;;;8.01;70.39
68656;BME280;55638;51.122;13.606;2022-12-24T00:32:14;98912.22;;;8.01;70.27
68656;BME280;55638;51.122;13.606;2022-12-24T00:33:46;98915.06;;;7.99;70.24
68656;BME280;55638;51.122;13.606;2022-12-24T00:35:18;98916.19;;;7.97;70.35
68656;BME280;55638;51.122;13.606;2022-12-24T00:36:50;98916.38;;;7.95;70.25
68656;BME280;55638;51.122;13.606;2022-12-24T00:38:22;98912.84;;;7.95;70.24
68656;BME280;55638;51.122;13.606;2022-12-24T00:39:54;98916.66;;;7.92;70.25
68656;BME280;55638;51.122;13.606;2022-12-24T00:41:26;98927.56;;;7.91;69.97
68656;BME280;55638;51.122;13.606;2022-12-24T00:43:01;98920.78;;;7.87;69.86
68656;BME280;55638;51.122;13.606;2022-12-24T00:44:33;98919.94;;;7.86;69.62
68656;BME280;55638;51.122;13.606;2022-12-24T00:46:05;98924.78;;;7.82;69.77
68656;BME280;55638;51.122;13.606;2022-12-24T00:47:36;98932.13;;;7.80;69.50
68656;BME280;55638;51.122;13.606;2022-12-24T00:49:10;98919.03;;;7.77;69.80
68656;BME280;55638;51.122;13.606;2022-12-24T00:50:42;98927.38;;;7.74;69.69
68656;BME280;55638;51.122;13.606;2022-12-24T00:52:13;98940.09;;;7.72;69.56
68656;BME280;55638;51.122;13.606;2022-12-24T00:53:46;98933.34;;;7.68;69.47
68656;BME280;55638;51.122;13.606;2022-12-24T00:55:17;98932.78;;;7.65;69.29
68656;BME280;55638;51.122;13.606;2022-12-24T00:56:49;98929.69;;;7.59;69.19
68656;BME280;55638;51.122;13.606;2022-12-24T00:58:21;98941.56;;;7.57;69.31
68656;BME280;55638;51.122;13.606;2022-12-24T00:59:53;98947.25;;;7.54;69.60
68656;BME280;55638;51.122;13.606;2022-12-24T01:01:25;98946.69;;;7.50;69.84
68656;BME280;55638;51.122;13.606;2022-12-24T01:02:57;98944.16;;;7.49;69.95
68656;BME280;55638;51.122;13.606;2022-12-24T01:04:29;98947.13;;;7.46;70.18
68656;BME280;55638;51.122;13.606;2022-12-24T01:06:20;98947.44;;;7.43;70.11
68656;BME280;55638;51.122;13.606;2022-12-24T01:07:52;98944.88;;;7.41;70.49
68656;BME280;55638;51.122;13.606;2022-12-24T01:09:25;98957.47;;;7.41;70.60
68656;BME280;55638;51.122;13.606;2022-12-24T01:10:56;98961.16;;;7.40;70.88
68656;BME280;55638;51.122;13.606;2022-12-24T01:12:28;98969.91;;;7.42;70.90
68656;BME280;55638;51.122;13.606;2022-12-24T01:14:00;98973.56;;;7.41;70.92
68656;BME280;55638;51.122;13.606;2022-12-24T01:15:32;98978.81;;;7.42;71.08
68656;BME280;55638;51.122;13.606;2022-12-24T01:17:04;98983.19;;;7.43;71.12
68656;BME280;55638;51.122;13.606;2022-12-24T01:18:36;98985.72;;;7.45;71.20
68656;BME280;55638;51.122;13.606;2022-12-24T01:20:13;98989.13;;;7.47;71.00
68656;BME280;55638;51.122;13.606;2022-12-24T01:21:45;98983.44;;;7.50;71.28
68656;BME280;55638;51.122;13.606;2022-12-24T01:23:17;98988.13;;;7.48;71.27
68656;BME280;55638;51.122;13.606;2022-12-24T01:24:48;98982.44;;;7.51;71.21
68656;BME280;55638;51.122;13.606;2022-12-24T01:26:20;98971.41;;;7.54;71.29
68656;BME280;55638;51.122;13.606;2022-12-24T01:27:52;98987.25;;;7.57;71.02
68656;BME280;55638;51.122;13.606;2022-12-24T01:29:24;98981.88;;;7.57;70.75
68656;BME280;55638;51.122;13.606;2022-12-24T01:30:55;98984.56;;;7.57;70.78
68656;BME280;55638;51.122;13.606;2022-12-24T01:32:27;98988.81;;;7.59;70.54
68656;BME280;55638;51.122;13.606;2022-12-24T01:33:59;98989.63;;;7.60;70.55
68656;BME280;55638;51.122;13.606;2022-12-24T01:35:31;98996.69;;;7.61;70.44
68656;BME280;55638;51.122;13.606;2022-12-24T01:37:02;98995.00;;;7.60;70.48
68656;BME280;55638;51.122;13.606;2022-12-24T01:38:34;99004.75;;;7.61;70.46
68656;BME280;55638;51.122;13.606;2022-12-24T01:40:08;99005.75;;;7.60;70.42
68656;BME280;55638;51.122;13.606;2022-12-24T01:41:59;98998.53;;;7.60;70.34
68656;BME280;55638;51.122;13.606;2022-12-24T01:43:50;99000.38;;;7.60;70.47
68656;BME280;55638;51.122;13.606;2022-12-24T01:45:50;99005.22;;;7.56;70.21
68656;BME280;55638;51.122;13.606;2022-12-24T01:47:26;99008.59;;;7.58;70.16
68656;BME280;55638;51.122;13.606;2022-12-24T01:49:01;99023.72;;;7.59;70.35
68656;BME280;55638;51.122;13.606;2022-12-24T01:50:34;99019.19;;;7.60;70.50
68656;BME280;55638;51.122;13.606;2022-12-24T01:52:10;99027.25;;;7.60;70.24
68656;BME280;55638;51.122;13.606;2022-12-24T01:53:47;99027.25;;;7.60;70.38
68656;BME280;55638;51.122;13.606;2022-12-24T01:55:20;99021.03;;;7.59;70.39
68656;BME280;55638;51.122;13.606;2022-12-24T01:56:57;99018.19;;;7.61;70.35
68656;BME280;55638;51.122;13.606;2022-12-24T01:58:31;99024.56;;;7.60;70.24
68656;BME280;55638;51.122;13.606;2022-12-24T02:00:07;99020.03;;;7.60;70.31
68656;BME280;55638;51.122;13.606;2022-12-24T02:01:39;99016.94;;;7.65;70.59
68656;BME280;55638;51.122;13.606;2022-12-24T02:03:11;99026.97;;;7.63;70.33
68656;BME280;55638;51.122;13.606;2022-12-24T02:04:59;99037.00;;;7.61;70.35
68656;BME280;55638;51.122;13.606;2022-12-24T02:06:32;99023.28;;;7.64;70.28
68656;BME280;55638;51.122;13.606;2022-12-24T02:08:04;99020.47;;;7.66;70.17
68656;BME280;55638;51.122;13.606;2022-12-24T02:09:38;99024.84;;;7.67;70.22
68656;BME280;55638;51.122;13.606;2022-12-24T02:11:11;99026.69;;;7.66;70.22
68656;BME280;55638;51.122;13.606;2022-12-24T02:12:44;99038.44;;;7.65;70.16
68656;BME280;55638;51.122;13.606;2022-12-24T02:14:16;99031.34;;;7.64;70.14
68656;BME280;55638;51.122;13.606;2022-12-24T02:24:46;99047.75;;;7.61;69.72
68656;BME280;55638;51.122;13.606;2022-12-24T02:30:00;99051.44;;;7.60;69.68
68656;BME280;55638;51.122;13.606;2022-12-24T02:31:43;99053.00;;;7.63;69.83
68656;BME280;55638;51.122;13.606;2022-12-24T02:36:41;99061.91;;;7.63;69.55
68656;BME280;55638;51.122;13.606;2022-12-24T02:38:23;99072.38;;;7.66;69.91
68656;BME280;55638;51.122;13.606;2022-12-24T02:40:03;99073.19;;;7.67;70.11
68656;BME280;55638;51.122;13.606;2022-12-24T02:41:49;99080.13;;;7.69;70.03
68656;BME280;55638;51.122;13.606;2022-12-24T02:43:41;99074.75;;;7.69;69.91
68656;BME280;55638;51.122;13.606;2022-12-24T02:45:17;99084.50;;;7.70;69.96
68656;BME280;55638;51.122;13.606;2022-12-24T02:46:51;99088.03;;;7.71;70.12
68656;BME280;55638;51.122;13.606;2022-12-24T02:48:25;99083.25;;;7.74;69.94
68656;BME280;55638;51.122;13.606;2022-12-24T02:50:00;99079.69;;;7.74;70.04
68656;BME280;55638;51.122;13.606;2022-12-24T02:51:33;99087.75;;;7.74;69.99
68656;BME280;55638;51.122;13.606;2022-12-24T02:53:08;99080.56;;;7.74;69.86
68656;BME280;55638;51.122;13.606;2022-12-24T02:54:43;99091.16;;;7.76;70.08
68656;BME280;55638;51.122;13.606;2022-12-24T02:56:36;99085.78;;;7.76;70.03
68656;BME280;55638;51.122;13.606;2022-12-24T03:00:08;99094.69;;;7.76;69.97
68656;BME280;55638;51.122;13.606;2022-12-24T03:03:35;99102.91;;;7.75;69.37
68656;BME280;55638;51.122;13.606;2022-12-24T03:07:00;99107.16;;;7.77;69.72
68656;BME280;55638;51.122;13.606;2022-12-24T03:08:47;99115.22;;;7.77;69.64
68656;BME280;55638;51.122;13.606;2022-12-24T03:10:26;99118.75;;;7.78;69.78
68656;BME280;55638;51.122;13.606;2022-12-24T03:12:15;99121.44;;;7.78;69.69
68656;BME280;55638;51.122;13.606;2022-12-24T03:13:50;99123.97;;;7.79;69.76
68656;BME280;55638;51.122;13.606;2022-12-24T03:15:25;99127.66;;;7.78;69.82
68656;BME280;55638;51.122;13.606;2022-12-24T03:16:58;99120.59;;;7.77;69.62
68656;BME280;55638;51.122;13.606;2022-12-24T03:18:31;99129.50;;;7.78;69.62
68656;BME280;55638;51.122;13.606;2022-12-24T03:20:05;99129.63;;;7.76;69.49
68656;BME280;55638;51.122;13.606;2022-12-24T03:21:39;99121.72;;;7.75;69.59
68656;BME280;55638;51.122;13.606;2022-12-24T03:23:13;99127.22;;;7.73;69.57
68656;BME280;55638;51.122;13.606;2022-12-24T03:24:45;99122.00;;;7.72;69.56
68656;BME280;55638;51.122;13.606;2022-12-24T03:26:18;99126.53;;;7.71;69.63
68656;BME280;55638;51.122;13.606;2022-12-24T03:27:51;99126.53;;;7.71;69.65
68656;BME280;55638;51.122;13.606;2022-12-24T03:29:23;99123.97;;;7.70;69.76
68656;BME280;55638;51.122;13.606;2022-12-24T03:30:55;99123.28;;;7.68;69.82
68656;BME280;55638;51.122;13.606;2022-12-24T03:32:30;99131.34;;;7.68;69.59
68656;BME280;55638;51.122;13.606;2022-12-24T03:34:02;99137.69;;;7.67;69.82
68656;BME280;55638;51.122;13.606;2022-12-24T03:35:34;99143.06;;;7.67;69.97
68656;BME280;55638;51.122;13.606;2022-12-24T03:37:06;99133.31;;;7.66;69.92
68656;BME280;55638;51.122;13.606;2022-12-24T03:38:38;99134.16;;;7.66;69.92
68656;BME280;55638;51.122;13.606;2022-12-24T03:40:10;99139.53;;;7.66;69.84
68656;BME280;55638;51.122;13.606;2022-12-24T03:41:42;99127.94;;;7.66;69.99
68656;BME280;55638;51.122;13.606;2022-12-24T03:43:14;99134.31;;;7.65;69.92
68656;BME280;55638;51.122;13.606;2022-12-24T03:44:46;99131.63;;;7.65;69.97
68656;BME280;55638;51.122;13.606;2022-12-24T03:46:18;99133.44;;;7.64;69.93
68656;BME280;55638;51.122;13.606;2022-12-24T03:47:50;99134.44;;;7.63;69.93
68656;BME280;55638;51.122;13.606;2022-12-24T03:49:21;99141.66;;;7.63;69.84
68656;BME280;55638;51.122;13.606;2022-12-24T03:50:53;99137.13;;;7.63;69.79
68656;BME280;55638;51.122;13.606;2022-12-24T03:52:25;99144.34;;;7.63;69.70
68656;BME280;55638;51.122;13.606;2022-12-24T03:53:57;99143.22;;;7.65;69.83
68656;BME280;55638;51.122;13.606;2022-12-24T03:55:29;99143.50;;;7.62;69.81
68656;BME280;55638;51.122;13.606;2022-12-24T03:57:01;99143.50;;;7.62;69.97
68656;BME280;55638;51.122;13.606;2022-12-24T03:58:33;99153.25;;;7.63;69.77
68656;BME280;55638;51.122;13.606;2022-12-24T04:00:06;99150.56;;;7.63;69.82
68656;BME280;55638;51.122;13.606;2022-12-24T04:01:44;99153.97;;;7.65;70.02
68656;BME280;55638;51.122;13.606;2022-12-24T04:03:16;99154.94;;;7.64;69.89
68656;BME280;55638;51.122;13.606;2022-12-24T04:04:48;99153.13;;;7.65;69.81
68656;BME280;55638;51.122;13.606;2022-12-24T04:06:20;99151.28;;;7.65;69.89
68656;BME280;55638;51.122;13.606;2022-12-24T04:07:52;99159.34;;;7.65;69.82
68656;BME280;55638;51.122;13.606;2022-12-24T04:09:24;99161.19;;;7.65;69.79
68656;BME280;55638;51.122;13.606;2022-12-24T04:10:56;99163.72;;;7.66;69.84
68656;BME280;55638;51.122;13.606;2022-12-24T04:12:28;99170.78;;;7.67;69.98
68656;BME280;55638;51.122;13.606;2022-12-24T04:13:59;99180.69;;;7.67;69.85
68656;BME280;55638;51.122;13.606;2022-12-24T04:15:31;99171.50;;;7.69;69.84
68656;BME280;55638;51.122;13.606;2022-12-24T04:17:03;99180.56;;;7.68;69.91
68656;BME280;55638;51.122;13.606;2022-12-24T04:18:35;99184.78;;;7.71;69.91
68656;BME280;55638;51.122;13.606;2022-12-24T04:20:08;99183.94;;;7.70;69.75
68656;BME280;55638;51.122;13.606;2022-12-24T04:21:40;99181.25;;;7.70;69.79
68656;BME280;55638;51.122;13.606;2022-12-24T04:23:11;99174.75;;;7.73;69.86
68656;BME280;55638;51.122;13.606;2022-12-24T04:24:43;99186.34;;;7.73;69.74
68656;BME280;55638;51.122;13.606;2022-12-24T04:26:15;99183.53;;;7.75;69.64
68656;BME280;55638;51.122;13.606;2022-12-24T04:27:47;99179.00;;;7.75;69.64
68656;BME280;55638;51.122;13.606;2022-12-24T04:29:19;99183.38;;;7.76;69.57
68656;BME280;55638;51.122;13.606;2022-12-24T04:30:50;99193.16;;;7.77;69.46
68656;BME280;55638;51.122;13.606;2022-12-24T04:32:24;99190.16;;;7.80;69.39
68656;BME280;55638;51.122;13.606;2022-12-24T04:33:56;99189.19;;;7.81;69.59
68656;BME280;55638;51.122;13.606;2022-12-24T04:35:28;99206.00;;;7.83;69.35
68656;BME280;55638;51.122;13.606;2022-12-24T04:37:00;99196.97;;;7.85;69.25
68656;BME280;55638;51.122;13.606;2022-12-24T04:38:33;99211.25;;;7.85;69.25
68656;BME280;55638;51.122;13.606;2022-12-24T04:40:05;99195.97;;;7.86;69.37
68656;BME280;55638;51.122;13.606;2022-12-24T04:41:37;99209.97;;;7.89;69.46
68656;BME280;55638;51.122;13.606;2022-12-24T04:43:09;99207.16;;;7.91;68.94
68656;BME280;55638;51.122;13.606;2022-12-24T04:44:40;99206.16;;;7.92;69.05
68656;BME280;55638;51.122;13.606;2022-12-24T04:46:18;99215.91;;;7.93;68.72
68656;BME280;55638;51.122;13.606;2022-12-24T04:47:50;99205.72;;;7.96;68.96
68656;BME280;55638;51.122;13.606;2022-12-24T04:49:22;99213.66;;;7.98;68.87
68656;BME280;55638;51.122;13.606;2022-12-24T04:50:53;99228.66;;;8.00;68.76
68656;BME280;55638;51.122;13.606;2022-12-24T04:52:26;99227.78;;;8.00;68.62
68656;BME280;55638;51.122;13.606;2022-12-24T04:53:58;99226.66;;;8.02;68.42
68656;BME280;55638;51.122;13.606;2022-12-24T04:55:29;99242.66;;;8.04;68.34
68656;BME280;55638;51.122;13.606;2022-12-24T04:57:01;99232.59;;;8.06;68.36
68656;BME280;55638;51.122;13.606;2022-12-24T04:58:33;99242.22;;;8.09;68.17
68656;BME280;55638;51.122;13.606;2022-12-24T05:00:06;99246.75;;;8.08;68.22
68656;BME280;55638;51.122;13.606;2022-12-24T05:01:38;99248.16;;;8.12;68.23
68656;BME280;55638;51.122;13.606;2022-12-24T05:03:10;99252.56;;;8.13;68.04
68656;BME280;55638;51.122;13.606;2022-12-24T05:04:42;99262.31;;;8.14;68.09
68656;BME280;55638;51.122;13.606;2022-12-24T05:06:16;99266.00;;;8.13;67.91
68656;BME280;55638;51.122;13.606;2022-12-24T05:07:48;99257.78;;;8.15;67.90
68656;BME280;55638;51.122;13.606;2022-12-24T05:09:20;99264.72;;;8.17;67.74
68656;BME280;55638;51.122;13.606;2022-12-24T05:10:56;99270.09;;;8.17;67.40
68656;BME280;55638;51.122;13.606;2022-12-24T05:12:28;99275.31;;;8.19;67.70
68656;BME280;55638;51.122;13.606;2022-12-24T05:14:00;99282.56;;;8.18;67.66
68656;BME280;55638;51.122;13.606;2022-12-24T05:15:31;99274.47;;;8.18;67.72
68656;BME280;55638;51.122;13.606;2022-12-24T05:17:03;99284.22;;;8.19;67.76
68656;BME280;55638;51.122;13.606;2022-12-24T05:18:35;99286.94;;;8.19;67.58
68656;BME280;55638;51.122;13.606;2022-12-24T05:20:07;99285.13;;;8.20;67.45
68656;BME280;55638;51.122;13.606;2022-12-24T05:21:39;99290.50;;;8.20;67.54
68656;BME280;55638;51.122;13.606;2022-12-24T05:23:15;99295.00;;;8.19;67.29
68656;BME280;55638;51.122;13.606;2022-12-24T05:25:07;99297.00;;;8.17;67.33
68656;BME280;55638;51.122;13.606;2022-12-24T05:27:08;99288.38;;;8.14;67.23
68656;BME280;55638;51.122;13.606;2022-12-24T05:28:40;99297.41;;;8.13;67.13
68656;BME280;55638;51.122;13.606;2022-12-24T05:30:12;99294.88;;;8.11;67.29
68656;BME280;55638;51.122;13.606;2022-12-24T05:31:45;99299.41;;;8.11;67.16
68656;BME280;55638;51.122;13.606;2022-12-24T05:33:16;99298.84;;;8.07;67.29
68656;BME280;55638;51.122;13.606;2022-12-24T05:34:48;99305.91;;;8.08;67.29
68656;BME280;55638;51.122;13.606;2022-12-24T05:36:21;99305.34;;;8.04;67.31
68656;BME280;55638;51.122;13.606;2022-12-24T05:37:56;99299.13;;;8.04;67.13
68656;BME280;55638;51.122;13.606;2022-12-24T05:39:28;99310.16;;;8.01;67.23
68656;BME280;55638;51.122;13.606;2022-12-24T05:41:00;99310.16;;;8.01;67.22
68656;BME280;55638;51.122;13.606;2022-12-24T05:42:32;99309.31;;;8.00;67.29
68656;BME280;55638;51.122;13.606;2022-12-24T05:44:03;99306.03;;;7.97;67.27
68656;BME280;55638;51.122;13.606;2022-12-24T05:45:35;99314.81;;;7.99;67.33
68656;BME280;55638;51.122;13.606;2022-12-24T05:47:07;99313.13;;;7.98;67.25
68656;BME280;55638;51.122;13.606;2022-12-24T05:48:39;99321.19;;;7.98;67.37
68656;BME280;55638;51.122;13.606;2022-12-24T05:50:11;99314.09;;;7.97;67.29
68656;BME280;55638;51.122;13.606;2022-12-24T05:51:43;99323.03;;;7.97;67.50
68656;BME280;55638;51.122;13.606;2022-12-24T05:53:15;99329.38;;;7.96;66.97
68656;BME280;55638;51.122;13.606;2022-12-24T05:54:46;99329.25;;;7.98;67.37
68656;BME280;55638;51.122;13.606;2022-12-24T05:56:20;99331.78;;;7.99;67.04
68656;BME280;55638;51.122;13.606;2022-12-24T05:57:52;99335.34;;;8.00;67.26
68656;BME280;55638;51.122;13.606;2022-12-24T05:59:24;99332.63;;;8.00;67.14
68656;BME280;55638;51.122;13.606;2022-12-24T06:00:56;99336.22;;;8.00;67.20
68656;BME280;55638;51.122;13.606;2022-12-24T06:02:28;99342.44;;;8.01;66.98
68656;BME280;55638;51.122;13.606;2022-12-24T06:04:00;99338.75;;;8.02;67.05
68656;BME280;55638;51.122;13.606;2022-12-24T06:05:32;99338.75;;;8.02;67.13
68656;BME280;55638;51.122;13.606;2022-12-24T06:07:03;99342.28;;;8.02;66.91
68656;BME280;55638;51.122;13.606;2022-12-24T06:08:36;99349.50;;;8.02;66.76
68656;BME280;55638;51.122;13.606;2022-12-24T06:10:08;99344.13;;;8.02;66.57
68656;BME280;55638;51.122;13.606;2022-12-24T06:11:40;99351.19;;;8.03;66.78
68656;BME280;55638;51.122;13.606;2022-12-24T06:13:12;99358.56;;;8.01;66.53
68656;BME280;55638;51.122;13.606;2022-12-24T06:14:43;99354.88;;;8.02;66.60
68656;BME280;55638;51.122;13.606;2022-12-24T06:16:18;99362.94;;;8.02;66.36
68656;BME280;55638;51.122;13.606;2022-12-24T06:17:50;99368.31;;;8.02;66.62
68656;BME280;55638;51.122;13.606;2022-12-24T06:19:22;99371.28;;;7.99;66.44
68656;BME280;55638;51.122;13.606;2022-12-24T06:20:55;99368.59;;;7.99;66.26
68656;BME280;55638;51.122;13.606;2022-12-24T06:22:27;99371.28;;;7.99;66.44
68656;BME280;55638;51.122;13.606;2022-12-24T06:23:59;99370.56;;;7.97;66.31
68656;BME280;55638;51.122;13.606;2022-12-24T06:25:30;99363.22;;;7.99;66.48
68656;BME280;55638;51.122;13.606;2022-12-24T06:27:02;99373.25;;;7.97;66.31
68656;BME280;55638;51.122;13.606;2022-12-24T06:28:36;99383.16;;;7.96;66.37
68656;BME280;55638;51.122;13.606;2022-12-24T06:30:08;99380.47;;;7.96;66.55
68656;BME280;55638;51.122;13.606;2022-12-24T06:31:40;99375.25;;;7.95;66.49
68656;BME280;55638;51.122;13.606;2022-12-24T06:33:13;99386.00;;;7.95;66.45
68656;BME280;55638;51.122;13.606;2022-12-24T06:34:44;99385.16;;;7.94;66.35
68656;BME280;55638;51.122;13.606;2022-12-24T06:36:20;99392.22;;;7.95;66.15
68656;BME280;55638;51.122;13.606;2022-12-24T06:37:52;99384.00;;;7.97;66.38
68656;BME280;55638;51.122;13.606;2022-12-24T06:39:24;99397.44;;;7.97;66.58
68656;BME280;55638;51.122;13.606;2022-12-24T06:40:56;99395.75;;;7.96;66.47
68656;BME280;55638;51.122;13.606;2022-12-24T06:42:28;99399.16;;;7.98;66.26
68656;BME280;55638;51.122;13.606;2022-12-24T06:44:00;99405.25;;;8.00;66.37
68656;BME280;55638;51.122;13.606;2022-12-24T06:45:32;99405.97;;;8.02;66.25
68656;BME280;55638;51.122;13.606;2022-12-24T06:47:03;99414.03;;;8.02;66.34
68656;BME280;55638;51.122;13.606;2022-12-24T06:48:35;99411.50;;;8.00;66.13
68656;BME280;55638;51.122;13.606;2022-12-24T06:50:07;99422.81;;;8.04;66.08
68656;BME280;55638;51.122;13.606;2022-12-24T06:51:39;99425.22;;;8.07;65.92
68656;BME280;55638;51.122;13.606;2022-12-24T06:53:10;99427.94;;;8.07;66.00
68656;BME280;55638;51.122;13.606;2022-12-24T06:54:42;99433.31;;;8.07;65.86
68656;BME280;55638;51.122;13.606;2022-12-24T06:56:14;99427.66;;;8.10;65.88
68656;BME280;55638;51.122;13.606;2022-12-24T06:57:46;99432.16;;;8.10;65.79
68656;BME280;55638;51.122;13.606;2022-12-24T06:59:18;99439.25;;;8.11;65.47
68656;BME280;55638;51.122;13.606;2022-12-24T07:00:49;99430.19;;;8.12;65.60
68656;BME280;55638;51.122;13.606;2022-12-24T07:02:21;99436.28;;;8.14;65.63
68656;BME280;55638;51.122;13.606;2022-12-24T07:03:53;99446.03;;;8.15;65.41
68656;BME280;55638;51.122;13.606;2022-12-24T07:05:25;99436.97;;;8.16;65.43
68656;BME280;55638;51.122;13.606;2022-12-24T07:06:57;99446.63;;;8.18;65.38
68656;BME280;55638;51.122;13.606;2022-12-24T07:08:29;99454.56;;;8.20;65.16
68656;BME280;55638;51.122;13.606;2022-12-24T07:10:05;99446.63;;;8.18;64.77
68656;BME280;55638;51.122;13.606;2022-12-24T07:11:37;99444.66;;;8.20;64.91
68656;BME280;55638;51.122;13.606;2022-12-24T07:13:08;99459.06;;;8.19;64.83
68656;BME280;55638;51.122;13.606;2022-12-24T07:14:40;99453.69;;;8.19;64.95
68656;BME280;55638;51.122;13.606;2022-12-24T07:16:12;99451.88;;;8.20;64.85
68656;BME280;55638;51.122;13.606;2022-12-24T07:17:44;99453.41;;;8.22;64.76
68656;BME280;55638;51.122;13.606;2022-12-24T07:19:16;99461.19;;;8.25;64.58
68656;BME280;55638;51.122;13.606;2022-12-24T07:20:48;99470.44;;;8.23;64.63
68656;BME280;55638;51.122;13.606;2022-12-24T07:22:20;99474.94;;;8.22;64.47
68656;BME280;55638;51.122;13.606;2022-12-24T07:23:52;99480.31;;;8.22;64.47
68656;BME280;55638;51.122;13.606;2022-12-24T07:25:24;99472.13;;;8.24;64.33
68656;BME280;55638;51.122;13.606;2022-12-24T07:26:56;99473.97;;;8.23;64.29
68656;BME280;55638;51.122;13.606;2022-12-24T07:28:28;99482.03;;;8.23;64.48
68656;BME280;55638;51.122;13.606;2022-12-24T07:30:00;99483.00;;;8.22;64.10
68656;BME280;55638;51.122;13.606;2022-12-24T07:31:31;99478.34;;;8.24;63.99
68656;BME280;55638;51.122;13.606;2022-12-24T07:33:03;99480.31;;;8.22;64.06
68656;BME280;55638;51.122;13.606;2022-12-24T07:34:35;99481.19;;;8.23;63.94
68656;BME280;55638;51.122;13.606;2022-12-24T07:36:10;99487.41;;;8.23;63.46
68656;BME280;55638;51.122;13.606;2022-12-24T07:37:44;99498.28;;;8.22;63.67
68656;BME280;55638;51.122;13.606;2022-12-24T07:39:16;99500.03;;;8.23;63.88
68656;BME280;55638;51.122;13.606;2022-12-24T07:40:48;99492.78;;;8.23;63.90
68656;BME280;55638;51.122;13.606;2022-12-24T07:42:20;99505.25;;;8.24;63.83
68656;BME280;55638;51.122;13.606;2022-12-24T07:43:53;99507.94;;;8.24;63.92
68656;BME280;55638;51.122;13.606;2022-12-24T07:45:25;99505.25;;;8.24;63.71
68656;BME280;55638;51.122;13.606;2022-12-24T07:46:56;99518.53;;;8.26;63.72
68656;BME280;55638;51.122;13.606;2022-12-24T07:48:29;99516.72;;;8.26;63.88
68656;BME280;55638;51.122;13.606;2022-12-24T07:50:03;99517.69;;;8.25;63.40
68656;BME280;55638;51.122;13.606;2022-12-24T07:51:36;99520.25;;;8.27;63.34
68656;BME280;55638;51.122;13.606;2022-12-24T07:53:08;99511.34;;;8.26;63.44
68656;BME280;55638;51.122;13.606;2022-12-24T07:54:39;99511.47;;;8.25;63.49
68656;BME280;55638;51.122;13.606;2022-12-24T07:56:11;99529.31;;;8.26;63.27
68656;BME280;55638;51.122;13.606;2022-12-24T07:57:43;99536.41;;;8.27;63.39
68656;BME280;55638;51.122;13.606;2022-12-24T07:59:15;99520.38;;;8.25;63.13
68656;BME280;55638;51.122;13.606;2022-12-24T08:00:47;99530.19;;;8.26;63.22
68656;BME280;55638;51.122;13.606;2022-12-24T08:02:19;99523.06;;;8.25;63.04
68656;BME280;55638;51.122;13.606;2022-12-24T08:03:51;99533.84;;;8.25;63.20
68656;BME280;55638;51.122;13.606;2022-12-24T08:05:26;99534.56;;;8.27;63.25
68656;BME280;55638;51.122;13.606;2022-12-24T08:06:58;99534.41;;;8.29;63.40
68656;BME280;55638;51.122;13.606;2022-12-24T08:08:29;99534.31;;;8.31;63.55
68656;BME280;55638;51.122;13.606;2022-12-24T08:10:02;99547.00;;;8.28;63.08
68656;BME280;55638;51.122;13.606;2022-12-24T08:11:34;99544.09;;;8.32;63.56
68656;BME280;55638;51.122;13.606;2022-12-24T08:13:06;99545.16;;;8.29;63.42
68656;BME280;55638;51.122;13.606;2022-12-24T08:14:37;99546.06;;;8.29;63.54
68656;BME280;55638;51.122;13.606;2022-12-24T08:16:09;99548.63;;;8.31;63.48
68656;BME280;55638;51.122;13.606;2022-12-24T08:17:41;99561.91;;;8.33;63.49
68656;BME280;55638;51.122;13.606;2022-12-24T08:19:13;99554.00;;;8.31;63.31
68656;BME280;55638;51.122;13.606;2022-12-24T08:20:45;99550.31;;;8.32;63.48
68656;BME280;55638;51.122;13.606;2022-12-24T08:22:16;99555.69;;;8.32;63.75
68656;BME280;55638;51.122;13.606;2022-12-24T08:23:48;99568.19;;;8.33;63.77
68656;BME280;55638;51.122;13.606;2022-12-24T08:25:20;99564.63;;;8.33;63.70
68656;BME280;55638;51.122;13.606;2022-12-24T08:26:52;99570.88;;;8.33;63.71
68656;BME280;55638;51.122;13.606;2022-12-24T08:28:24;99569.16;;;8.32;63.73
68656;BME280;55638;51.122;13.606;2022-12-24T08:29:56;99570.72;;;8.35;63.63
68656;BME280;55638;51.122;13.606;2022-12-24T08:31:27;99577.78;;;8.36;63.46
68656;BME280;55638;51.122;13.606;2022-12-24T08:32:59;99572.69;;;8.33;63.46
68656;BME280;55638;51.122;13.606;2022-12-24T08:34:31;99587.00;;;8.33;63.57
68656;BME280;55638;51.122;13.606;2022-12-24T08:36:03;99587.00;;;8.33;63.49